sensor_id;sensor_type;location;lat;lon;timestamp;temperature;humidity
67165;SHT31;54093;50.014;19.984;2023-02-10T00:00:00;-3.35;68.41
67165;SHT31;54093;50.014;19.984;2023-02-10T00:09:21;-3.47;68.56
67165;SHT31;54093;50.014;19.984;2023-02-10T00:18:42;-3.41;67.99
67165;SHT31;54093;50.014;19.984;2023-02-10T00:28:03;-3.31;66.78
67165;SHT31;54093;50.014;19.984;2023-02-10T00:37:24;-3.18;66.34
67165;SHT31;54093;50.014;19.984;2023-02-10T00:46:45;-3.18;66.44
67165;SHT31;54093;50.014;19.984;2023-02-10T00:56:07;-3.21;65.95
67165;SHT31;54093;50.014;19.984;2023-02-10T01:05:28;-3.31;66.16
67165;SHT31;54093;50.014;19.984;2023-02-10T01:14:49;-3.34;66.09
67165;SHT31;54093;50.014;19.984;2023-02-10T01:24:10;-3.44;67.08
67165;SHT31;54093;50.014;19.984;2023-02-10T01:33:31;-3.51;67.07
67165;SHT31;54093;50.014;19.984;2023-02-10T01:42:52;-3.52;66.69
67165;SHT31;54093;50.014;19.984;2023-02-10T01:52:23;-3.65;67.81
67165;SHT31;54093;50.014;19.984;2023-02-10T02:01:45;-3.71;68.27
67165;SHT31;54093;50.014;19.984;2023-02-10T02:40:03;-3.62;66.90
67165;SHT31;54093;50.014;19.984;2023-02-10T03:08:48;-3.27;65.05
67165;SHT31;54093;50.014;19.984;2023-02-10T03:18:09;-3.14;64.20
67165;SHT31;54093;50.014;19.984;2023-02-10T03:27:30;-2.93;63.57
67165;SHT31;54093;50.014;19.984;2023-02-10T03:36:51;-2.87;63.28
67165;SHT31;54093;50.014;19.984;2023-02-10T03:46:12;-2.92;63.55
67165;SHT31;54093;50.014;19.984;2023-02-10T03:55:33;-3.03;64.26
67165;SHT31;54093;50.014;19.984;2023-02-10T04:04:54;-3.20;65.20
67165;SHT31;54093;50.014;19.984;2023-02-10T04:14:15;-3.28;65.57
67165;SHT31;54093;50.014;19.984;2023-02-10T04:23:36;-3.38;65.71
67165;SHT31;54093;50.014;19.984;2023-02-10T04:32:58;-3.48;66.30
67165;SHT31;54093;50.014;19.984;2023-02-10T04:42:19;-3.66;66.98
67165;SHT31;54093;50.014;19.984;2023-02-10T04:51:50;-3.82;67.76
67165;SHT31;54093;50.014;19.984;2023-02-10T05:01:11;-3.85;68.31
67165;SHT31;54093;50.014;19.984;2023-02-10T05:10:32;-3.82;68.69
67165;SHT31;54093;50.014;19.984;2023-02-10T05:19:53;-3.71;69.40
67165;SHT31;54093;50.014;19.984;2023-02-10T05:29:14;-3.65;69.84
67165;SHT31;54093;50.014;19.984;2023-02-10T05:38:35;-3.59;69.73
67165;SHT31;54093;50.014;19.984;2023-02-10T05:47:56;-3.71;70.07
67165;SHT31;54093;50.014;19.984;2023-02-10T05:57:17;-3.72;70.62
67165;SHT31;54093;50.014;19.984;2023-02-10T06:06:38;-3.89;70.73
67165;SHT31;54093;50.014;19.984;2023-02-10T06:15:59;-3.89;71.24
67165;SHT31;54093;50.014;19.984;2023-02-10T06:25:22;-3.76;71.25
67165;SHT31;54093;50.014;19.984;2023-02-10T06:34:43;-3.69;71.11
67165;SHT31;54093;50.014;19.984;2023-02-10T06:44:05;-3.68;71.22
67165;SHT31;54093;50.014;19.984;2023-02-10T06:53:26;-3.62;71.20
67165;SHT31;54093;50.014;19.984;2023-02-10T07:02:47;-3.42;70.80
67165;SHT31;54093;50.014;19.984;2023-02-10T07:12:08;-3.13;69.76
67165;SHT31;54093;50.014;19.984;2023-02-10T07:21:29;-3.14;69.84
67165;SHT31;54093;50.014;19.984;2023-02-10T07:30:49;-3.08;69.92
67165;SHT31;54093;50.014;19.984;2023-02-10T07:40:11;-2.90;69.35
67165;SHT31;54093;50.014;19.984;2023-02-10T07:49:33;-2.73;68.98
67165;SHT31;54093;50.014;19.984;2023-02-10T07:58:53;-2.42;68.28
67165;SHT31;54093;50.014;19.984;2023-02-10T08:08:15;-2.34;68.92
67165;SHT31;54093;50.014;19.984;2023-02-10T08:17:36;-1.90;67.15
67165;SHT31;54093;50.014;19.984;2023-02-10T08:26:59;-1.65;67.39
67165;SHT31;54093;50.014;19.984;2023-02-10T08:36:20;-0.88;68.29
67165;SHT31;54093;50.014;19.984;2023-02-10T08:45:42;-0.45;63.40
67165;SHT31;54093;50.014;19.984;2023-02-10T08:55:03;-0.63;62.25
67165;SHT31;54093;50.014;19.984;2023-02-10T09:04:25;-0.70;62.38
67165;SHT31;54093;50.014;19.984;2023-02-10T09:13:45;-0.72;62.70
67165;SHT31;54093;50.014;19.984;2023-02-10T09:23:06;-0.56;64.21
67165;SHT31;54093;50.014;19.984;2023-02-10T09:32:27;-0.26;62.33
67165;SHT31;54093;50.014;19.984;2023-02-10T09:42:14;-0.07;61.34
67165;SHT31;54093;50.014;19.984;2023-02-10T09:52:06;0.09;62.00
67165;SHT31;54093;50.014;19.984;2023-02-10T10:01:34;0.37;60.67
67165;SHT31;54093;50.014;19.984;2023-02-10T10:11:01;0.75;60.36
67165;SHT31;54093;50.014;19.984;2023-02-10T10:29:55;1.37;57.14
67165;SHT31;54093;50.014;19.984;2023-02-10T10:39:34;1.51;57.01
67165;SHT31;54093;50.014;19.984;2023-02-10T10:48:57;2.04;54.68
67165;SHT31;54093;50.014;19.984;2023-02-10T10:58:25;2.04;55.69
67165;SHT31;54093;50.014;19.984;2023-02-10T11:07:49;2.11;55.79
67165;SHT31;54093;50.014;19.984;2023-02-10T11:17:22;2.52;54.11
67165;SHT31;54093;50.014;19.984;2023-02-10T11:26:54;2.57;54.58
67165;SHT31;54093;50.014;19.984;2023-02-10T11:36:15;2.73;54.80
67165;SHT31;54093;50.014;19.984;2023-02-10T11:45:36;2.93;55.26
67165;SHT31;54093;50.014;19.984;2023-02-10T11:54:57;3.15;53.68
67165;SHT31;54093;50.014;19.984;2023-02-10T12:14:12;3.51;51.19
67165;SHT31;54093;50.014;19.984;2023-02-10T12:52:23;3.09;53.69
67165;SHT31;54093;50.014;19.984;2023-02-10T13:01:59;3.19;53.78
67165;SHT31;54093;50.014;19.984;2023-02-10T13:11:35;3.23;54.20
67165;SHT31;54093;50.014;19.984;2023-02-10T13:21:14;3.31;52.00
67165;SHT31;54093;50.014;19.984;2023-02-10T13:31:00;3.66;52.48
67165;SHT31;54093;50.014;19.984;2023-02-10T13:40:33;3.76;51.84
67165;SHT31;54093;50.014;19.984;2023-02-10T13:49:58;3.94;52.74
67165;SHT31;54093;50.014;19.984;2023-02-10T14:08:43;3.60;57.08
67165;SHT31;54093;50.014;19.984;2023-02-10T14:18:34;3.43;59.70
67165;SHT31;54093;50.014;19.984;2023-02-10T14:27:55;3.18;60.67
67165;SHT31;54093;50.014;19.984;2023-02-10T14:37:19;3.08;61.20
67165;SHT31;54093;50.014;19.984;2023-02-10T14:46:46;2.95;62.50
67165;SHT31;54093;50.014;19.984;2023-02-10T14:56:16;2.88;63.07
67165;SHT31;54093;50.014;19.984;2023-02-10T15:05:44;2.81;62.82
67165;SHT31;54093;50.014;19.984;2023-02-10T15:15:19;2.76;62.95
67165;SHT31;54093;50.014;19.984;2023-02-10T15:24:43;2.61;62.25
67165;SHT31;54093;50.014;19.984;2023-02-10T15:34:24;2.43;63.25
67165;SHT31;54093;50.014;19.984;2023-02-10T15:43:47;2.32;63.73
67165;SHT31;54093;50.014;19.984;2023-02-10T15:53:16;2.23;64.06
67165;SHT31;54093;50.014;19.984;2023-02-10T16:02:43;2.22;63.95
67165;SHT31;54093;50.014;19.984;2023-02-10T16:12:04;2.11;64.58
67165;SHT31;54093;50.014;19.984;2023-02-10T16:21:25;2.12;64.34
67165;SHT31;54093;50.014;19.984;2023-02-10T16:30:46;2.14;64.87
67165;SHT31;54093;50.014;19.984;2023-02-10T16:40:15;2.09;65.21
67165;SHT31;54093;50.014;19.984;2023-02-10T16:49:38;1.97;66.32
67165;SHT31;54093;50.014;19.984;2023-02-10T16:58:59;2.06;66.08
67165;SHT31;54093;50.014;19.984;2023-02-10T17:08:20;2.01;66.25
67165;SHT31;54093;50.014;19.984;2023-02-10T17:17:42;1.94;66.34
67165;SHT31;54093;50.014;19.984;2023-02-10T17:27:03;2.02;66.02
67165;SHT31;54093;50.014;19.984;2023-02-10T17:36:26;2.01;65.86
67165;SHT31;54093;50.014;19.984;2023-02-10T17:45:48;2.02;65.75
67165;SHT31;54093;50.014;19.984;2023-02-10T17:55:10;1.94;65.43
67165;SHT31;54093;50.014;19.984;2023-02-10T18:04:33;1.94;65.72
67165;SHT31;54093;50.014;19.984;2023-02-10T18:13:54;1.84;66.38
67165;SHT31;54093;50.014;19.984;2023-02-10T18:23:15;1.82;66.25
67165;SHT31;54093;50.014;19.984;2023-02-10T18:32:36;1.95;65.60
67165;SHT31;54093;50.014;19.984;2023-02-10T18:42:01;1.87;65.75
67165;SHT31;54093;50.014;19.984;2023-02-10T18:51:22;1.89;65.87
67165;SHT31;54093;50.014;19.984;2023-02-10T19:00:46;1.93;66.03
67165;SHT31;54093;50.014;19.984;2023-02-10T19:10:07;1.94;66.33
67165;SHT31;54093;50.014;19.984;2023-02-10T19:19:28;1.91;66.35
67165;SHT31;54093;50.014;19.984;2023-02-10T19:28:49;1.88;66.65
67165;SHT31;54093;50.014;19.984;2023-02-10T19:38:10;1.82;66.67
67165;SHT31;54093;50.014;19.984;2023-02-10T19:47:31;1.88;66.39
67165;SHT31;54093;50.014;19.984;2023-02-10T19:56:52;1.84;66.68
67165;SHT31;54093;50.014;19.984;2023-02-10T20:06:16;1.70;67.20
67165;SHT31;54093;50.014;19.984;2023-02-10T20:15:38;1.71;67.26
67165;SHT31;54093;50.014;19.984;2023-02-10T20:24:59;1.77;66.32
67165;SHT31;54093;50.014;19.984;2023-02-10T20:34:20;1.68;66.68
67165;SHT31;54093;50.014;19.984;2023-02-10T20:43:41;1.70;66.65
67165;SHT31;54093;50.014;19.984;2023-02-10T20:53:03;1.67;66.96
67165;SHT31;54093;50.014;19.984;2023-02-10T21:02:24;1.63;67.58
67165;SHT31;54093;50.014;19.984;2023-02-10T21:11:45;1.56;67.88
67165;SHT31;54093;50.014;19.984;2023-02-10T21:21:08;1.48;68.33
67165;SHT31;54093;50.014;19.984;2023-02-10T21:30:30;1.47;68.40
67165;SHT31;54093;50.014;19.984;2023-02-10T21:39:51;1.36;68.99
67165;SHT31;54093;50.014;19.984;2023-02-10T21:49:13;1.42;69.40
67165;SHT31;54093;50.014;19.984;2023-02-10T21:58:34;1.40;69.65
67165;SHT31;54093;50.014;19.984;2023-02-10T22:07:55;1.35;69.77
67165;SHT31;54093;50.014;19.984;2023-02-10T22:17:16;1.39;69.38
67165;SHT31;54093;50.014;19.984;2023-02-10T22:26:37;1.35;69.44
67165;SHT31;54093;50.014;19.984;2023-02-10T22:36:05;1.19;69.48
67165;SHT31;54093;50.014;19.984;2023-02-10T22:45:27;0.95;70.57
67165;SHT31;54093;50.014;19.984;2023-02-10T22:54:51;0.75;71.22
67165;SHT31;54093;50.014;19.984;2023-02-10T23:04:16;0.58;71.72
67165;SHT31;54093;50.014;19.984;2023-02-10T23:13:37;0.46;71.96
67165;SHT31;54093;50.014;19.984;2023-02-10T23:22:58;0.30;72.52
67165;SHT31;54093;50.014;19.984;2023-02-10T23:32:20;0.11;72.91
67165;SHT31;54093;50.014;19.984;2023-02-10T23:41:41;-0.08;73.24
67165;SHT31;54093;50.014;19.984;2023-02-10T23:51:10;-0.14;73.18
